Allenwood, Pennsylvania
Current Conditions -  °F | °C
As of 12:54 AM on Wednesday 22 Oct 2014 (Local Time) from KIPT Reporting Station
Overcast Overcast  
Wind Chill: 51°   Ceiling: 4900
Heat Index: 51°   Visibility: 10mi
Dew Point: 47°   Wind: 7mph
Humidity: 86%   Direction: 270°W
Pressure: 29.95"   Gusts: NA
Location:  41.11°N, 76.9°W
Report Text: KIPT 220454Z AUTO 27006KT 10SM SCT024 BKN049 OVC070 11/08 A2995 RMK AO2 SLP143 T01060083 401500089
Loading
Personal Weather Stations






























Interactive Weather Map
Tropical Storm Tracking
New forecast layout! Learn more

10-Day Weather Forecast

Advertisements
Track Severe Weather on mobile